Time;durP1;ratioP1;P1;durP2;ratioP2;P2;SDS_P1;SDS_P2;PMS_P1;PMS_P2;Temp;Humidity;BMP_temperature;BMP_pressure;BME280_temperature;BME280_humidity;BME280_pressure;Samples;Min_cycle;Max_cycle;Signal;HPM_P1;HPM_P2
2022/03/12 00:00:52;;;;;;;9.38;4.82;;;10.20;73.40;;;;;;5022353;28;20070;-60
2022/03/12 00:03:18;;;;;;;9.73;5.22;;;10.20;74.10;;;;;;5023897;28;20060;-61
2022/03/12 00:05:59;;;;;;;13.50;4.43;;;10.20;74.20;;;;;;5022370;28;20034;-62
2022/03/12 00:08:44;;;;;;;9.45;4.50;;;10.20;75.20;;;;;;5030400;28;20041;-62
2022/03/12 00:11:26;;;;;;;19.02;4.60;;;10.20;76.50;;;;;;5028749;28;20038;-62
2022/03/12 00:13:53;;;;;;;10.32;4.70;;;10.10;78.20;;;;;;5023067;28;20487;-62
2022/03/12 00:16:25;;;;;;;16.98;6.78;;;10.00;78.60;;;;;;5023087;28;20040;-60
2022/03/12 00:18:56;;;;;;;11.20;4.95;;;9.90;78.90;;;;;;5024020;28;20513;-63
2022/03/12 00:21:27;;;;;;;13.60;5.25;;;10.00;77.50;;;;;;5020414;28;20199;-62
2022/03/12 00:23:55;;;;;;;10.80;4.80;;;10.00;77.30;;;;;;5020321;28;20038;-62
2022/03/12 00:26:23;;;;;;;12.98;4.85;;;10.00;77.30;;;;;;5022449;28;20340;-60
2022/03/12 00:28:50;;;;;;;12.43;4.97;;;10.00;77.90;;;;;;5020110;28;20026;-65
2022/03/12 00:31:16;;;;;;;20.52;5.35;;;10.10;77.70;;;;;;5021194;28;20519;-60
2022/03/12 00:33:42;;;;;;;10.00;5.03;;;10.20;76.60;;;;;;5022710;28;20199;-62
2022/03/12 00:36:09;;;;;;;16.08;5.07;;;10.20;75.90;;;;;;5020540;28;20060;-60
2022/03/12 00:38:35;;;;;;;12.32;5.35;;;10.30;75.30;;;;;;5023095;28;20056;-61
2022/03/12 00:41:02;;;;;;;10.48;4.97;;;10.30;75.00;;;;;;5019003;28;20034;-61
2022/03/12 00:43:28;;;;;;;10.18;4.65;;;10.40;75.40;;;;;;5022295;28;20524;-65
2022/03/12 00:45:54;;;;;;;15.35;4.60;;;10.40;74.50;;;;;;5022243;28;20037;-62
2022/03/12 00:48:19;;;;;;;10.93;4.45;;;10.50;74.40;;;;;;5021798;28;20029;-61
2022/03/12 00:50:45;;;;;;;12.80;5.20;;;10.50;74.40;;;;;;5020261;28;20030;-61
2022/03/12 00:53:10;;;;;;;9.27;4.57;;;10.60;74.00;;;;;;5022615;28;20501;-62
2022/03/12 00:55:36;;;;;;;13.80;4.50;;;10.60;74.50;;;;;;5018937;28;20038;-61
2022/03/12 00:58:02;;;;;;;15.65;5.25;;;10.60;74.30;;;;;;5022140;28;20106;-61
2022/03/12 01:00:28;;;;;;;13.38;4.88;;;10.70;74.20;;;;;;5019585;28;20147;-61
2022/03/12 01:02:54;;;;;;;11.27;4.60;;;10.70;74.00;;;;;;5022085;28;20505;-60
2022/03/12 01:05:39;;;;;;;11.55;5.35;;;10.70;74.40;;;;;;5021484;28;20132;-60
2022/03/12 01:08:05;;;;;;;11.98;5.07;;;10.70;74.50;;;;;;5023061;28;20040;-60
2022/03/12 01:10:31;;;;;;;14.68;4.88;;;10.70;74.40;;;;;;5019131;28;20053;-61
2022/03/12 01:12:56;;;;;;;12.15;5.57;;;10.70;74.40;;;;;;5022199;28;20107;-61
2022/03/12 01:15:22;;;;;;;12.75;4.85;;;10.70;74.80;;;;;;5020791;28;20567;-61
2022/03/12 01:17:48;;;;;;;12.82;4.70;;;10.70;76.30;;;;;;5020649;28;20038;-62
2022/03/12 01:20:13;;;;;;;14.60;4.53;;;10.70;77.50;;;;;;5021426;28;20044;-61
2022/03/12 01:22:39;;;;;;;10.52;5.10;;;10.70;78.60;;;;;;5018760;28;20030;-61
2022/03/12 01:25:07;;;;;;;12.07;4.50;;;10.50;80.50;;;;;;5017810;28;20038;-61
2022/03/12 01:27:34;;;;;;;13.55;4.75;;;10.40;83.30;;;;;;5021563;28;20518;-62
2022/03/12 01:30:00;;;;;;;8.93;4.80;;;10.30;84.10;;;;;;5022180;28;20029;-61
2022/03/12 01:32:26;;;;;;;13.20;5.47;;;10.10;86.30;;;;;;5019374;28;20088;-61
2022/03/12 01:34:51;;;;;;;11.70;5.05;;;10.00;88.00;;;;;;5020962;28;20038;-61
2022/03/12 01:37:19;;;;;;;14.60;5.10;;;9.90;88.90;;;;;;5020735;28;20519;-62
2022/03/12 01:39:47;;;;;;;12.93;5.05;;;9.80;90.70;;;;;;5018445;28;20552;-62
2022/03/12 01:42:14;;;;;;;12.80;5.18;;;9.70;91.80;;;;;;5024089;28;20033;-60
2022/03/12 01:44:40;;;;;;;12.43;4.93;;;9.60;91.80;;;;;;5022867;28;20084;-60
2022/03/12 01:47:08;;;;;;;12.60;4.78;;;9.60;92.50;;;;;;5019383;28;20030;-61
2022/03/12 01:49:34;;;;;;;17.77;5.82;;;9.60;92.50;;;;;;5021885;28;20064;-63
2022/03/12 01:52:00;;;;;;;13.25;5.57;;;9.60;92.70;;;;;;5049492;28;20049;-60
2022/03/12 01:54:28;;;;;;;12.73;5.85;;;9.50;93.50;;;;;;5022284;28;20037;-60
2022/03/12 01:56:54;;;;;;;15.85;5.68;;;9.60;93.60;;;;;;5026161;28;20033;-61
2022/03/12 01:59:21;;;;;;;13.25;5.03;;;9.60;93.60;;;;;;5021558;28;20080;-62
2022/03/12 02:01:51;;;;;;;11.60;5.38;;;9.60;93.60;;;;;;5019709;28;20034;-60
2022/03/12 02:04:18;;;;;;;14.55;5.57;;;9.60;93.50;;;;;;5020175;28;20029;-61
2022/03/12 02:06:45;;;;;;;11.95;5.25;;;9.70;93.80;;;;;;5017201;28;20088;-61
2022/03/12 02:09:14;;;;;;;14.00;5.22;;;9.80;93.30;;;;;;5052411;28;20037;-60
2022/03/12 02:11:40;;;;;;;10.25;4.47;;;9.80;92.80;;;;;;5017470;28;20091;-60
2022/03/12 02:14:12;;;;;;;15.20;4.60;;;9.90;92.70;;;;;;5021860;28;20085;-60
2022/03/12 02:16:51;;;;;;;9.40;4.35;;;10.00;92.20;;;;;;5020792;28;20033;-61
2022/03/12 02:19:18;;;;;;;9.07;4.40;;;10.00;92.20;;;;;;5020324;28;20041;-60
2022/03/12 02:21:58;;;;;;;11.60;4.93;;;10.10;92.20;;;;;;5019308;28;20042;-60
2022/03/12 02:24:29;;;;;;;16.25;5.88;;;10.20;92.20;;;;;;5018586;28;20562;-61
2022/03/12 02:26:57;;;;;;;11.68;4.95;;;10.10;92.00;;;;;;5021219;28;20030;-60
2022/03/12 02:29:24;;;;;;;10.38;4.82;;;10.20;91.90;;;;;;5018964;28;20038;-62
2022/03/12 02:32:02;;;;;;;9.75;4.82;;;10.20;91.80;;;;;;5020559;28;20513;-61
2022/03/12 02:34:35;;;;;;;10.65;4.82;;;10.30;91.70;;;;;;5022515;28;20556;-62
2022/03/12 02:37:00;;;;;;;11.27;4.65;;;10.30;91.70;;;;;;5022062;28;20428;-59
2022/03/12 02:39:27;;;;;;;12.55;5.72;;;10.30;91.40;;;;;;5021720;28;20129;-62
2022/03/12 02:41:54;;;;;;;14.20;5.38;;;10.30;91.10;;;;;;5020837;28;20021;-60
2022/03/12 02:44:24;;;;;;;11.60;4.97;;;10.30;90.90;;;;;;5019061;28;20037;-60
2022/03/12 02:47:10;;;;;;;11.77;4.55;;;10.40;91.10;;;;;;5019899;28;20030;-60
2022/03/12 02:49:39;;;;;;;11.23;5.15;;;10.30;91.40;;;;;;5021466;28;20060;-61
2022/03/12 02:52:05;;;;;;;16.35;4.85;;;10.30;91.50;;;;;;5018163;28;20125;-61
2022/03/12 02:54:31;;;;;;;11.82;5.13;;;10.30;91.60;;;;;;5020994;28;20076;-60
2022/03/12 02:56:56;;;;;;;11.25;5.32;;;10.20;91.60;;;;;;5017268;28;20033;-61
2022/03/12 02:59:22;;;;;;;10.70;4.78;;;10.30;91.70;;;;;;5018222;28;20026;-61
2022/03/12 03:01:50;;;;;;;12.60;4.55;;;10.20;91.80;;;;;;5018110;28;20045;-60
2022/03/12 03:04:17;;;;;;;10.85;5.20;;;10.20;92.00;;;;;;5019261;28;20033;-61
2022/03/12 03:06:43;;;;;;;10.07;4.78;;;10.20;92.20;;;;;;5018641;28;20034;-61
2022/03/12 03:09:08;;;;;;;11.75;5.15;;;10.20;92.30;;;;;;5020133;28;20033;-59
2022/03/12 03:11:39;;;;;;;11.25;4.93;;;10.20;92.40;;;;;;5017408;28;20045;-60
2022/03/12 03:14:10;;;;;;;12.52;5.22;;;10.20;92.40;;;;;;5032430;28;20471;-60
2022/03/12 03:16:36;;;;;;;13.05;4.53;;;10.10;92.30;;;;;;5019799;28;20077;-62
2022/03/12 03:19:02;;;;;;;11.68;4.60;;;10.10;92.50;;;;;;5018134;28;20064;-60
2022/03/12 03:21:28;;;;;;;15.50;5.45;;;10.10;92.70;;;;;;5025053;28;20037;-62
2022/03/12 03:23:54;;;;;;;13.35;5.35;;;10.10;92.90;;;;;;5025213;28;20037;-62
2022/03/12 03:26:33;;;;;;;12.27;4.55;;;10.10;93.30;;;;;;5022143;28;20053;-62
2022/03/12 03:28:59;;;;;;;14.00;4.95;;;10.00;93.50;;;;;;5025379;28;20444;-62
2022/03/12 03:31:25;;;;;;;10.45;4.47;;;10.00;93.90;;;;;;5031763;28;20113;-62
2022/03/12 03:33:50;;;;;;;9.85;4.88;;;10.00;94.00;;;;;;5045517;28;20049;-62
2022/03/12 03:36:16;;;;;;;13.90;4.85;;;10.00;94.30;;;;;;5027347;28;20092;-60
2022/03/12 03:38:41;;;;;;;12.98;5.35;;;9.90;94.50;;;;;;5022610;28;20175;-59
2022/03/12 03:41:07;;;;;;;9.50;4.70;;;9.90;95.00;;;;;;5022218;28;20037;-61
2022/03/12 03:43:33;;;;;;;19.48;4.93;;;9.90;95.30;;;;;;5028129;28;20553;-60
2022/03/12 03:45:58;;;;;;;10.52;4.88;;;9.90;95.80;;;;;;5024542;28;20136;-60
2022/03/12 03:48:24;;;;;;;10.23;4.68;;;9.90;96.10;;;;;;5021209;28;20468;-60
2022/03/12 03:50:52;;;;;;;11.73;5.07;;;9.80;96.50;;;;;;5023465;28;20410;-61
2022/03/12 03:53:21;;;;;;;11.10;4.63;;;9.90;96.90;;;;;;5021457;28;20032;-60
2022/03/12 03:55:47;;;;;;;11.45;5.13;;;9.90;97.10;;;;;;5023196;28;20049;-60
2022/03/12 03:58:14;;;;;;;10.95;5.03;;;9.90;97.30;;;;;;5022363;28;20675;-59
2022/03/12 04:00:57;;;;;;;11.48;5.10;;;9.90;97.60;;;;;;5021766;28;20046;-60
2022/03/12 04:03:24;;;;;;;13.52;5.38;;;9.90;97.90;;;;;;5024504;28;20409;-60
2022/03/12 04:05:50;;;;;;;15.10;4.47;;;9.90;98.20;;;;;;5020622;28;20445;-61
2022/03/12 04:08:16;;;;;;;11.70;5.55;;;9.90;98.60;;;;;;5023444;28;20088;-60
2022/03/12 04:10:41;;;;;;;10.20;4.50;;;9.90;99.00;;;;;;5021471;28;20060;-61
2022/03/12 04:13:16;;;;;;;12.15;4.60;;;9.90;99.20;;;;;;5022113;28;20458;-61
2022/03/12 04:15:42;;;;;;;11.05;4.30;;;9.80;99.70;;;;;;5021647;28;20125;-61
2022/03/12 04:18:09;;;;;;;15.45;5.50;;;9.80;99.90;;;;;;5020582;28;20136;-61
2022/03/12 04:20:35;;;;;;;9.75;4.10;;;9.80;99.90;;;;;;5020803;28;20045;-60
2022/03/12 04:23:01;;;;;;;11.90;5.38;;;9.70;99.90;;;;;;5023202;28;20034;-60
2022/03/12 04:25:29;;;;;;;8.10;3.88;;;9.70;99.90;;;;;;5020580;28;20034;-60
2022/03/12 04:27:55;;;;;;;9.40;4.32;;;9.70;99.90;;;;;;5023623;28;20034;-59
2022/03/12 04:30:21;;;;;;;9.90;3.92;;;9.60;99.90;;;;;;5020014;28;20030;-60
2022/03/12 04:32:47;;;;;;;11.07;4.70;;;9.60;99.90;;;;;;5022627;28;20398;-62
2022/03/12 04:35:15;;;;;;;10.95;4.32;;;9.60;99.90;;;;;;5021519;28;20044;-60
2022/03/12 04:37:41;;;;;;;9.70;4.15;;;9.50;99.90;;;;;;5022160;28;20038;-61
2022/03/12 04:40:10;;;;;;;7.80;4.10;;;9.50;99.90;;;;;;5021868;28;20091;-60
2022/03/12 04:42:44;;;;;;;8.63;3.78;;;9.50;99.90;;;;;;5020287;28;20033;-60
2022/03/12 04:45:15;;;;;;;7.18;3.67;;;9.50;99.90;;;;;;5020880;28;20129;-60
2022/03/12 04:47:42;;;;;;;7.95;3.88;;;9.40;99.90;;;;;;5020561;28;20029;-61
2022/03/12 04:50:10;;;;;;;8.15;3.75;;;9.50;99.90;;;;;;5021763;28;20121;-60
2022/03/12 04:52:36;;;;;;;7.15;3.08;;;9.50;99.90;;;;;;5021217;28;20045;-61
2022/03/12 04:55:13;;;;;;;6.72;3.65;;;9.60;99.90;;;;;;5021097;28;20038;-61
2022/03/12 04:57:40;;;;;;;7.13;3.15;;;9.60;99.90;;;;;;5020630;28;20053;-60
2022/03/12 05:00:09;;;;;;;6.90;3.47;;;9.60;99.90;;;;;;5020970;28;20512;-60
2022/03/12 05:02:35;;;;;;;6.82;3.03;;;9.60;99.90;;;;;;5021094;28;20038;-60
2022/03/12 05:05:01;;;;;;;8.63;3.22;;;9.60;99.90;;;;;;5023799;28;20026;-60
2022/03/12 05:07:27;;;;;;;10.10;4.05;;;9.60;99.90;;;;;;5020310;28;20044;-60
2022/03/12 05:09:55;;;;;;;6.63;3.08;;;9.60;99.90;;;;;;5022698;28;20526;-60
2022/03/12 05:12:22;;;;;;;8.32;2.95;;;9.60;99.90;;;;;;5023138;28;20033;-60
2022/03/12 05:14:48;;;;;;;5.68;3.35;;;9.50;99.90;;;;;;5054582;28;20412;-62
2022/03/12 05:17:15;;;;;;;6.47;3.13;;;9.50;99.90;;;;;;5022974;28;20029;-60
2022/03/12 05:19:41;;;;;;;6.82;3.15;;;9.50;99.90;;;;;;5019954;28;20033;-60
2022/03/12 05:22:07;;;;;;;7.75;3.53;;;9.60;99.90;;;;;;5021042;28;20025;-60
2022/03/12 05:24:34;;;;;;;5.55;3.00;;;9.50;99.90;;;;;;5021225;28;20510;-60
2022/03/12 05:27:00;;;;;;;8.88;2.95;;;9.50;99.90;;;;;;5020087;28;20532;-61
2022/03/12 05:29:26;;;;;;;10.07;3.35;;;9.40;99.90;;;;;;5022068;28;20037;-61
2022/03/12 05:31:53;;;;;;;7.07;3.47;;;9.40;99.90;;;;;;5018576;28;20041;-60
2022/03/12 05:34:25;;;;;;;8.90;3.30;;;9.30;99.90;;;;;;5022960;28;20045;-59
2022/03/12 05:36:51;;;;;;;5.25;2.65;;;9.30;99.90;;;;;;5022624;28;20043;-60
2022/03/12 05:39:19;;;;;;;7.07;3.60;;;9.20;99.90;;;;;;5019215;28;20034;-61
2022/03/12 05:41:49;;;;;;;8.30;3.40;;;9.20;99.90;;;;;;5018934;28;20029;-61
2022/03/12 05:44:15;;;;;;;5.47;2.85;;;9.20;99.90;;;;;;5021907;28;20040;-60
2022/03/12 05:46:41;;;;;;;8.23;3.10;;;9.10;99.90;;;;;;5018948;28;20037;-59
2022/03/12 05:49:08;;;;;;;5.63;3.00;;;9.10;99.90;;;;;;5021157;28;20478;-60
2022/03/12 05:51:37;;;;;;;6.95;3.00;;;9.10;99.90;;;;;;5019583;28;20604;-59
2022/03/12 05:54:03;;;;;;;6.10;3.10;;;9.00;99.90;;;;;;5020180;28;20022;-60
2022/03/12 05:56:30;;;;;;;7.82;3.03;;;9.00;99.90;;;;;;5021220;28;20110;-59
2022/03/12 05:58:55;;;;;;;4.90;2.40;;;9.00;99.90;;;;;;5019083;28;20030;-59
2022/03/12 06:01:21;;;;;;;7.45;3.17;;;9.00;99.90;;;;;;5021537;28;20516;-61
2022/03/12 06:03:47;;;;;;;6.15;3.03;;;9.00;99.90;;;;;;5018246;28;20061;-62
2022/03/12 06:06:13;;;;;;;9.50;3.45;;;9.00;99.90;;;;;;5022065;28;20049;-62
2022/03/12 06:08:40;;;;;;;7.22;3.10;;;9.00;99.90;;;;;;5033775;28;20037;-60
2022/03/12 06:11:06;;;;;;;6.05;3.05;;;8.90;99.90;;;;;;5020599;28;20084;-60
2022/03/12 06:13:33;;;;;;;5.53;2.83;;;9.00;99.90;;;;;;5019779;28;20417;-61
2022/03/12 06:16:00;;;;;;;5.97;2.85;;;9.00;99.90;;;;;;5019901;28;20029;-61
2022/03/12 06:18:27;;;;;;;5.30;2.50;;;9.00;99.90;;;;;;5021039;28;20397;-60
2022/03/12 06:20:53;;;;;;;4.75;2.30;;;9.00;99.90;;;;;;5018234;28;20038;-60
2022/03/12 06:23:19;;;;;;;6.38;2.58;;;9.00;99.90;;;;;;5021675;28;20047;-61
2022/03/12 06:25:45;;;;;;;7.88;2.70;;;9.10;99.90;;;;;;5021418;28;20044;-61
2022/03/12 06:28:11;;;;;;;4.57;2.50;;;9.10;99.90;;;;;;5018562;28;20109;-61
2022/03/12 06:30:42;;;;;;;4.75;2.50;;;9.20;99.90;;;;;;5018780;28;20173;-61
2022/03/12 06:33:09;;;;;;;7.93;2.40;;;9.20;99.90;;;;;;5019096;28;20037;-59
2022/03/12 06:35:35;;;;;;;5.38;2.42;;;9.20;99.90;;;;;;5020036;28;20136;-62
2022/03/12 06:38:01;;;;;;;4.85;2.10;;;9.20;99.90;;;;;;5019820;28;20033;-62
2022/03/12 06:40:28;;;;;;;7.22;2.13;;;9.20;99.90;;;;;;5019110;28;20053;-60
2022/03/12 06:42:56;;;;;;;5.40;2.25;;;9.30;99.90;;;;;;5018606;28;20038;-62
2022/03/12 06:45:26;;;;;;;3.80;1.92;;;9.30;99.90;;;;;;5022054;28;20041;-61
2022/03/12 06:47:52;;;;;;;3.60;1.70;;;9.40;99.90;;;;;;5021094;28;20037;-60
2022/03/12 06:50:22;;;;;;;3.65;1.90;;;9.40;99.90;;;;;;5018944;28;20044;-61
2022/03/12 06:52:48;;;;;;;3.53;1.85;;;9.50;99.90;;;;;;5019805;28;20057;-61
2022/03/12 06:55:20;;;;;;;4.70;2.45;;;9.60;99.90;;;;;;5029196;28;20042;-60
2022/03/12 06:57:47;;;;;;;4.10;2.05;;;9.70;99.90;;;;;;5028290;28;20030;-61
2022/03/12 07:00:16;;;;;;;5.55;2.08;;;9.60;99.90;;;;;;5021699;28;20140;-60
2022/03/12 07:02:43;;;;;;;7.65;2.97;;;9.70;99.90;;;;;;5021108;28;20038;-61
2022/03/12 07:05:09;;;;;;;3.90;2.22;;;9.70;99.90;;;;;;5032812;28;20042;-60
2022/03/12 07:07:35;;;;;;;4.18;2.15;;;9.70;99.90;;;;;;5018856;28;20034;-60
2022/03/12 07:10:01;;;;;;;3.90;1.80;;;9.80;99.90;;;;;;5019097;28;20060;-60
2022/03/12 07:12:26;;;;;;;5.88;2.22;;;9.90;99.90;;;;;;5018458;28;20034;-60
2022/03/12 07:14:52;;;;;;;5.03;2.35;;;9.90;99.90;;;;;;5021731;28;20049;-60
2022/03/12 07:17:18;;;;;;;4.90;2.45;;;9.90;99.90;;;;;;5021624;28;20117;-60
2022/03/12 07:19:44;;;;;;;5.55;2.30;;;9.90;99.90;;;;;;5020850;28;20041;-60
2022/03/12 07:22:09;;;;;;;4.18;2.00;;;9.90;99.90;;;;;;5017616;28;20029;-61
2022/03/12 07:24:35;;;;;;;4.60;2.33;;;10.00;99.90;;;;;;5019734;28;20034;-61
2022/03/12 07:27:01;;;;;;;3.50;1.95;;;10.10;99.90;;;;;;5021122;28;20061;-61
2022/03/12 07:29:29;;;;;;;8.85;3.20;;;10.10;99.90;;;;;;5019364;28;20084;-60
2022/03/12 07:31:55;;;;;;;6.90;2.03;;;10.20;99.90;;;;;;5017431;28;20105;-60
2022/03/12 07:34:21;;;;;;;5.90;2.00;;;10.20;99.90;;;;;;5016803;28;20463;-61
2022/03/12 07:36:47;;;;;;;5.03;2.40;;;10.30;99.90;;;;;;5019328;28;20120;-62
2022/03/12 07:39:12;;;;;;;6.22;2.28;;;10.40;99.90;;;;;;5019086;28;20060;-61
2022/03/12 07:41:38;;;;;;;7.78;2.30;;;10.50;99.90;;;;;;5020726;28;20482;-62
2022/03/12 07:44:05;;;;;;;6.07;2.03;;;10.60;99.90;;;;;;5019423;28;20075;-62
2022/03/12 07:46:30;;;;;;;4.93;2.38;;;10.60;99.90;;;;;;5020323;28;20034;-62
2022/03/12 07:48:56;;;;;;;5.90;1.83;;;10.70;99.90;;;;;;5018741;28;20481;-62
2022/03/12 07:51:22;;;;;;;5.22;1.85;;;10.70;99.90;;;;;;5018578;28;20430;-62
2022/03/12 07:53:48;;;;;;;3.20;2.00;;;10.70;99.90;;;;;;5019913;28;20410;-62
2022/03/12 07:56:14;;;;;;;4.55;2.00;;;10.80;99.90;;;;;;5017678;28;20117;-61
2022/03/12 07:58:39;;;;;;;6.32;1.80;;;10.80;99.90;;;;;;5035332;28;20060;-61
2022/03/12 08:01:05;;;;;;;3.75;1.95;;;10.80;99.90;;;;;;5016394;28;20115;-62
2022/03/12 08:03:31;;;;;;;4.03;2.03;;;10.80;99.90;;;;;;5019866;28;20037;-64
2022/03/12 08:05:57;;;;;;;12.23;2.95;;;10.80;99.90;;;;;;5018495;28;20029;-62
2022/03/12 08:08:23;;;;;;;5.85;2.20;;;10.90;99.90;;;;;;5020555;28;20437;-61
2022/03/12 08:13:35;;;;;;;5.20;2.33;;;11.10;99.90;;;;;;5022117;28;20037;-64
2022/03/12 08:16:01;;;;;;;4.00;2.03;;;11.10;99.90;;;;;;5020596;28;20059;-62
2022/03/12 08:18:27;;;;;;;3.90;1.85;;;11.20;99.90;;;;;;5021831;28;20402;-63
2022/03/12 08:20:53;;;;;;;5.38;2.40;;;11.30;99.90;;;;;;5021590;28;20518;-61
2022/03/12 08:23:19;;;;;;;4.05;1.92;;;11.40;99.90;;;;;;5023216;28;20034;-61
2022/03/12 08:25:45;;;;;;;4.80;2.42;;;11.50;99.90;;;;;;5020659;28;20033;-62
2022/03/12 08:28:11;;;;;;;5.28;2.22;;;11.50;99.90;;;;;;5025708;28;20163;-62
2022/03/12 08:30:37;;;;;;;6.78;2.78;;;11.50;99.90;;;;;;5023122;28;20048;-62
2022/03/12 08:33:03;;;;;;;6.18;2.50;;;11.60;99.90;;;;;;5029205;28;20608;-61
2022/03/12 08:35:29;;;;;;;6.00;2.20;;;11.60;99.90;;;;;;5029007;28;20037;-62
2022/03/12 08:37:54;;;;;;;5.45;2.58;;;11.70;99.90;;;;;;5028578;28;20087;-61
2022/03/12 08:40:20;;;;;;;5.93;2.22;;;11.80;99.90;;;;;;5028233;28;20120;-62
2022/03/12 08:42:46;;;;;;;7.20;2.60;;;11.80;99.90;;;;;;5027948;28;20030;-62
2022/03/12 08:45:12;;;;;;;6.00;2.65;;;11.80;99.90;;;;;;5029428;28;20045;-62
2022/03/12 08:47:39;;;;;;;6.00;2.22;;;11.90;99.90;;;;;;5028550;28;20036;-61
2022/03/12 08:50:08;;;;;;;7.32;2.92;;;11.90;99.90;;;;;;5026520;28;20759;-61
2022/03/12 08:52:37;;;;;;;6.03;2.33;;;12.00;99.90;;;;;;5023266;28;20061;-62
2022/03/12 08:55:04;;;;;;;5.28;2.53;;;11.90;99.90;;;;;;5028240;28;20477;-61
2022/03/12 08:57:29;;;;;;;4.72;2.25;;;12.00;99.90;;;;;;5028585;28;20502;-61
2022/03/12 08:59:55;;;;;;;4.05;2.00;;;11.90;99.90;;;;;;5024706;28;20049;-61
2022/03/12 09:02:21;;;;;;;4.90;2.42;;;11.90;99.90;;;;;;5026585;28;20037;-62
2022/03/12 09:04:47;;;;;;;4.32;2.13;;;11.90;99.90;;;;;;5028459;28;20684;-62
2022/03/12 09:07:13;;;;;;;5.43;2.45;;;11.90;99.90;;;;;;5028653;28;20095;-61
2022/03/12 09:09:38;;;;;;;8.07;2.17;;;12.00;99.90;;;;;;5028174;28;20030;-64
2022/03/12 09:12:05;;;;;;;5.18;2.15;;;12.00;99.90;;;;;;5028008;28;20136;-62
2022/03/12 09:14:34;;;;;;;8.40;2.20;;;12.00;99.90;;;;;;5028461;28;20032;-60
2022/03/12 09:17:01;;;;;;;4.80;2.30;;;12.10;99.90;;;;;;5020922;28;20022;-62
2022/03/12 09:19:27;;;;;;;7.40;2.40;;;12.20;99.90;;;;;;5020678;28;20034;-63
2022/03/12 09:21:52;;;;;;;5.95;1.98;;;12.40;99.90;;;;;;5017982;28;20041;-64
2022/03/12 09:24:18;;;;;;;4.70;1.52;;;12.50;99.90;;;;;;5019591;28;20167;-62
2022/03/12 09:26:43;;;;;;;5.63;1.73;;;12.60;99.90;;;;;;5021254;28;20034;-62
2022/03/12 09:29:10;;;;;;;3.88;1.80;;;12.90;99.90;;;;;;5019283;28;20026;-61
2022/03/12 09:31:36;;;;;;;5.47;1.75;;;13.00;99.90;;;;;;5019042;28;20034;-62
2022/03/12 09:34:02;;;;;;;5.78;1.60;;;13.20;99.90;;;;;;5022442;28;20471;-63
2022/03/12 09:36:28;;;;;;;6.05;1.70;;;13.20;99.90;;;;;;5019991;28;20042;-68
2022/03/12 09:38:54;;;;;;;3.38;1.58;;;13.20;99.90;;;;;;5023344;28;20555;-61
2022/03/12 09:41:20;;;;;;;6.00;1.35;;;13.10;99.90;;;;;;5020775;28;20033;-63
2022/03/12 09:43:46;;;;;;;5.53;1.98;;;13.00;99.90;;;;;;5022832;28;20398;-62
2022/03/12 09:46:12;;;;;;;7.82;1.15;;;12.90;99.90;;;;;;5022481;28;20049;-62
2022/03/12 09:48:38;;;;;;;8.18;1.30;;;12.80;99.90;;;;;;5019478;28;20026;-62
2022/03/12 09:51:03;;;;;;;5.72;1.40;;;12.80;99.90;;;;;;5022708;28;20033;-64
2022/03/12 09:53:29;;;;;;;4.28;2.03;;;12.70;99.90;;;;;;5020173;28;20045;-61
2022/03/12 09:55:54;;;;;;;5.72;1.08;;;12.80;99.90;;;;;;5021282;28;20038;-62
2022/03/12 09:58:20;;;;;;;5.22;1.15;;;12.70;99.90;;;;;;5022859;28;20034;-62
2022/03/12 10:00:46;;;;;;;3.72;1.08;;;12.70;99.90;;;;;;5020579;28;20405;-63
2022/03/12 10:03:11;;;;;;;3.95;0.82;;;12.60;99.90;;;;;;5022100;28;20045;-62
2022/03/12 10:05:37;;;;;;;3.65;1.73;;;12.60;99.90;;;;;;5024634;28;20030;-63
2022/03/12 10:08:03;;;;;;;3.70;1.05;;;12.60;99.90;;;;;;5021585;28;20398;-62
2022/03/12 10:10:29;;;;;;;7.13;1.15;;;12.60;99.90;;;;;;5024191;28;20041;-61
2022/03/12 10:12:54;;;;;;;6.72;1.60;;;12.60;99.90;;;;;;5020464;28;20036;-60
2022/03/12 10:15:20;;;;;;;3.80;1.42;;;12.70;99.90;;;;;;5025017;28;20060;-62
2022/03/12 10:17:47;;;;;;;3.22;1.20;;;12.70;99.90;;;;;;5029098;28;20117;-62
2022/03/12 10:20:13;;;;;;;3.35;0.90;;;12.90;99.90;;;;;;5024716;28;20042;-62
2022/03/12 10:22:40;;;;;;;3.47;1.15;;;13.00;99.90;;;;;;5021837;28;20507;-67
2022/03/12 10:25:07;;;;;;;6.10;1.70;;;13.20;99.90;;;;;;5018552;28;20034;-64
2022/03/12 10:27:34;;;;;;;5.95;1.35;;;13.40;99.90;;;;;;5021668;28;20030;-62
2022/03/12 10:30:00;;;;;;;6.30;2.10;;;13.60;99.90;;;;;;5020897;28;20506;-61
2022/03/12 10:32:29;;;;;;;4.40;1.80;;;13.70;99.90;;;;;;5018912;28;20090;-62
2022/03/12 10:34:59;;;;;;;2.97;0.90;;;13.80;99.90;;;;;;5021545;28;20037;-62
2022/03/12 10:37:31;;;;;;;6.95;0.93;;;13.80;99.90;;;;;;5020981;28;20060;-62
2022/03/12 10:40:21;;;;;;;3.85;1.00;;;13.90;99.90;;;;;;5017941;28;20053;-62
2022/03/12 10:42:49;;;;;;;3.72;0.80;;;13.90;99.90;;;;;;5018602;28;20048;-61
2022/03/12 10:45:21;;;;;;;4.57;1.52;;;13.80;99.90;;;;;;5019233;28;20037;-62
2022/03/12 10:47:55;;;;;;;6.07;1.52;;;13.80;99.90;;;;;;5019508;28;20132;-61
2022/03/12 10:50:25;;;;;;;3.17;0.90;;;13.80;99.90;;;;;;5019791;28;20050;-61
2022/03/12 10:52:53;;;;;;;2.57;0.87;;;13.80;99.90;;;;;;5018643;28;20056;-61
2022/03/12 10:55:24;;;;;;;4.57;0.73;;;13.80;99.90;;;;;;5019970;28;20883;-62
2022/03/12 10:58:04;;;;;;;3.80;0.98;;;13.70;99.90;;;;;;5033682;28;20041;-62
2022/03/12 11:00:37;;;;;;;4.32;0.80;;;13.80;99.90;;;;;;5021360;28;20050;-62
2022/03/12 11:03:04;;;;;;;3.78;1.00;;;13.80;99.90;;;;;;5021038;28;20563;-61
2022/03/12 11:05:35;;;;;;;5.15;0.70;;;14.00;99.90;;;;;;5021112;28;20046;-61
2022/03/12 11:08:18;;;;;;;5.55;0.88;;;14.10;99.90;;;;;;5021539;28;20044;-61
2022/03/12 11:11:13;;;;;;;2.70;1.00;;;14.10;99.90;;;;;;5021163;28;20045;-61
2022/03/12 11:13:47;;;;;;;4.20;0.88;;;14.20;99.90;;;;;;5011679;28;20456;-63
2022/03/12 11:16:35;;;;;;;3.63;1.58;;;14.10;99.90;;;;;;5019519;28;20038;-62
2022/03/12 11:19:11;;;;;;;2.83;0.50;;;14.10;99.90;;;;;;5017635;28;20033;-61
2022/03/12 11:21:50;;;;;;;8.23;0.85;;;14.20;99.90;;;;;;5021032;28;20467;-61
2022/03/12 11:24:44;;;;;;;5.20;0.95;;;14.20;99.90;;;;;;5018119;28;20030;-61
2022/03/12 11:27:13;;;;;;;3.53;1.08;;;14.40;99.90;;;;;;5033270;28;20030;-61
2022/03/12 11:29:39;;;;;;;2.45;0.80;;;14.50;99.90;;;;;;5019695;28;20037;-62
2022/03/12 11:32:09;;;;;;;2.90;1.15;;;14.60;99.90;;;;;;5018005;28;20033;-61
2022/03/12 11:34:43;;;;;;;2.92;1.23;;;14.60;99.90;;;;;;5020088;28;20140;-64
2022/03/12 11:37:18;;;;;;;3.28;0.80;;;14.60;99.90;;;;;;5022141;28;20037;-62
2022/03/12 11:39:52;;;;;;;4.95;0.85;;;14.60;99.90;;;;;;5033899;28;20482;-62
2022/03/12 11:42:17;;;;;;;2.17;1.00;;;14.60;99.90;;;;;;5024423;28;20113;-61
2022/03/12 11:44:46;;;;;;;5.47;0.77;;;14.60;99.90;;;;;;5022751;28;20124;-60
2022/03/12 11:47:14;;;;;;;5.55;0.85;;;14.60;99.90;;;;;;5022935;28;20532;-63
2022/03/12 11:49:40;;;;;;;5.93;1.52;;;14.50;99.90;;;;;;5022995;28;20536;-64
2022/03/12 11:52:06;;;;;;;1.55;0.60;;;14.50;99.90;;;;;;5021565;28;20053;-72
2022/03/12 11:54:34;;;;;;;4.55;1.05;;;14.50;99.90;;;;;;5024080;28;20394;-62
2022/03/12 11:56:59;;;;;;;9.00;0.98;;;14.60;99.90;;;;;;5021076;28;20037;-62
2022/03/12 11:59:26;;;;;;;5.38;0.90;;;14.60;99.90;;;;;;5024625;28;20413;-61
2022/03/12 12:02:14;;;;;;;3.83;0.73;;;14.70;99.30;;;;;;5018681;28;20112;-61
2022/03/12 12:04:40;;;;;;;1.30;0.80;;;14.70;99.50;;;;;;5022003;28;20041;-63
2022/03/12 12:07:06;;;;;;;3.70;0.98;;;14.90;99.20;;;;;;5023340;28;20026;-62
2022/03/12 12:09:32;;;;;;;2.78;0.80;;;14.90;98.80;;;;;;5023481;28;20041;-61
2022/03/12 12:12:00;;;;;;;3.05;0.80;;;14.90;98.70;;;;;;5025365;28;20029;-62
2022/03/12 12:14:26;;;;;;;5.90;0.70;;;14.70;99.00;;;;;;5026975;28;20034;-62
2022/03/12 12:16:58;;;;;;;3.17;1.00;;;14.70;98.40;;;;;;5022666;28;20102;-61
2022/03/12 12:19:25;;;;;;;3.75;1.10;;;14.70;98.70;;;;;;5028688;28;20072;-62
2022/03/12 12:21:51;;;;;;;3.45;1.00;;;14.70;98.70;;;;;;5026641;28;20108;-61
2022/03/12 12:24:26;;;;;;;1.95;0.50;;;14.80;98.90;;;;;;5029012;28;20930;-61
2022/03/12 12:26:58;;;;;;;2.50;0.57;;;14.80;98.30;;;;;;5028833;28;20041;-61
2022/03/12 12:29:48;;;;;;;1.15;0.45;;;14.80;97.90;;;;;;5028832;28;20041;-61
2022/03/12 12:32:24;;;;;;;5.13;0.82;;;14.80;97.30;;;;;;5027361;28;20521;-61
2022/03/12 12:35:04;;;;;;;3.75;0.63;;;14.80;97.50;;;;;;5028760;28;20030;-61
2022/03/12 12:37:52;;;;;;;2.25;0.57;;;14.90;97.50;;;;;;5027024;28;20514;-61
2022/03/12 12:40:32;;;;;;;7.00;0.90;;;14.90;97.50;;;;;;5027945;28;20614;-63
2022/03/12 12:43:02;;;;;;;5.10;0.90;;;14.90;97.00;;;;;;5028147;28;20045;-61
2022/03/12 12:45:31;;;;;;;4.30;1.42;;;14.80;97.90;;;;;;5028440;28;20041;-61
2022/03/12 12:48:14;;;;;;;6.43;1.55;;;14.90;97.00;;;;;;5028478;28;20026;-61
2022/03/12 12:50:58;;;;;;;2.35;0.68;;;14.90;97.60;;;;;;5025809;28;20040;-63
2022/03/12 12:53:28;;;;;;;1.50;0.35;;;15.00;97.30;;;;;;5028512;28;20056;-62
2022/03/12 12:56:33;;;;;;;5.47;1.20;;;15.00;97.20;;;;;;5026232;28;20145;-61